sensor_id;sensor_type;location;lat;lon;timestamp;P1;durP1;ratioP1;P2;durP2;ratioP2
29788;SDS011;64899;42.660;23.268;2024-01-25T00:00:40;47.13;;;26.75;;
29788;SDS011;64899;42.660;23.268;2024-01-25T00:03:06;54.47;;;26.45;;
29788;SDS011;64899;42.660;23.268;2024-01-25T00:05:31;49.75;;;25.90;;
29788;SDS011;64899;42.660;23.268;2024-01-25T00:07:57;46.88;;;25.52;;
29788;SDS011;64899;42.660;23.268;2024-01-25T00:10:22;46.70;;;25.90;;
29788;SDS011;64899;42.660;23.268;2024-01-25T00:12:48;45.15;;;25.00;;
29788;SDS011;64899;42.660;23.268;2024-01-25T00:15:13;42.30;;;25.40;;
29788;SDS011;64899;42.660;23.268;2024-01-25T00:17:39;50.13;;;25.13;;
29788;SDS011;64899;42.660;23.268;2024-01-25T00:20:04;43.35;;;23.27;;
29788;SDS011;64899;42.660;23.268;2024-01-25T00:22:30;44.22;;;24.27;;
29788;SDS011;64899;42.660;23.268;2024-01-25T00:24:56;38.08;;;20.80;;
29788;SDS011;64899;42.660;23.268;2024-01-25T00:27:21;32.95;;;19.75;;
29788;SDS011;64899;42.660;23.268;2024-01-25T00:29:46;31.70;;;17.70;;
29788;SDS011;64899;42.660;23.268;2024-01-25T00:32:12;29.65;;;16.42;;
29788;SDS011;64899;42.660;23.268;2024-01-25T00:34:37;27.67;;;16.58;;
29788;SDS011;64899;42.660;23.268;2024-01-25T00:37:03;33.22;;;19.13;;
29788;SDS011;64899;42.660;23.268;2024-01-25T00:39:29;32.53;;;17.77;;
29788;SDS011;64899;42.660;23.268;2024-01-25T00:41:56;33.45;;;18.77;;
29788;SDS011;64899;42.660;23.268;2024-01-25T00:44:26;32.83;;;18.65;;
29788;SDS011;64899;42.660;23.268;2024-01-25T00:46:52;35.78;;;19.15;;
29788;SDS011;64899;42.660;23.268;2024-01-25T00:49:18;31.15;;;17.38;;
29788;SDS011;64899;42.660;23.268;2024-01-25T00:51:45;32.45;;;17.73;;
29788;SDS011;64899;42.660;23.268;2024-01-25T00:54:12;28.52;;;17.38;;
29788;SDS011;64899;42.660;23.268;2024-01-25T00:56:39;34.70;;;18.52;;
29788;SDS011;64899;42.660;23.268;2024-01-25T00:59:04;35.60;;;19.70;;
29788;SDS011;64899;42.660;23.268;2024-01-25T01:01:30;37.42;;;19.95;;
29788;SDS011;64899;42.660;23.268;2024-01-25T01:03:56;36.58;;;20.00;;
29788;SDS011;64899;42.660;23.268;2024-01-25T01:06:23;32.22;;;18.70;;
29788;SDS011;64899;42.660;23.268;2024-01-25T01:08:49;35.90;;;19.90;;
29788;SDS011;64899;42.660;23.268;2024-01-25T01:11:14;36.47;;;20.35;;
29788;SDS011;64899;42.660;23.268;2024-01-25T01:13:40;33.00;;;18.67;;
29788;SDS011;64899;42.660;23.268;2024-01-25T01:16:05;33.28;;;18.20;;
29788;SDS011;64899;42.660;23.268;2024-01-25T01:18:31;33.70;;;18.95;;
29788;SDS011;64899;42.660;23.268;2024-01-25T01:20:56;34.03;;;19.73;;
29788;SDS011;64899;42.660;23.268;2024-01-25T01:23:22;34.58;;;18.55;;
29788;SDS011;64899;42.660;23.268;2024-01-25T01:25:47;32.63;;;17.55;;
29788;SDS011;64899;42.660;23.268;2024-01-25T01:28:12;28.48;;;15.40;;
29788;SDS011;64899;42.660;23.268;2024-01-25T01:30:38;27.10;;;14.77;;
29788;SDS011;64899;42.660;23.268;2024-01-25T01:33:06;31.02;;;16.23;;
29788;SDS011;64899;42.660;23.268;2024-01-25T01:35:35;28.63;;;16.45;;
29788;SDS011;64899;42.660;23.268;2024-01-25T01:38:00;27.27;;;16.65;;
29788;SDS011;64899;42.660;23.268;2024-01-25T01:40:26;29.98;;;16.10;;
29788;SDS011;64899;42.660;23.268;2024-01-25T01:42:51;30.85;;;15.75;;
29788;SDS011;64899;42.660;23.268;2024-01-25T01:45:16;24.90;;;13.52;;
29788;SDS011;64899;42.660;23.268;2024-01-25T01:47:42;16.27;;;7.70;;
29788;SDS011;64899;42.660;23.268;2024-01-25T01:50:08;4.65;;;3.10;;
29788;SDS011;64899;42.660;23.268;2024-01-25T01:52:34;4.90;;;2.35;;
29788;SDS011;64899;42.660;23.268;2024-01-25T01:55:00;2.17;;;1.30;;
29788;SDS011;64899;42.660;23.268;2024-01-25T01:57:26;2.95;;;1.83;;
29788;SDS011;64899;42.660;23.268;2024-01-25T01:59:52;3.55;;;1.55;;
29788;SDS011;64899;42.660;23.268;2024-01-25T02:02:17;3.33;;;1.77;;
29788;SDS011;64899;42.660;23.268;2024-01-25T02:04:43;3.72;;;1.90;;
29788;SDS011;64899;42.660;23.268;2024-01-25T02:07:08;3.20;;;2.00;;
29788;SDS011;64899;42.660;23.268;2024-01-25T02:09:34;3.20;;;1.90;;
29788;SDS011;64899;42.660;23.268;2024-01-25T02:12:00;3.40;;;1.70;;
29788;SDS011;64899;42.660;23.268;2024-01-25T02:14:28;2.30;;;1.50;;
29788;SDS011;64899;42.660;23.268;2024-01-25T02:16:55;4.03;;;1.65;;
29788;SDS011;64899;42.660;23.268;2024-01-25T02:19:20;4.68;;;1.67;;
29788;SDS011;64899;42.660;23.268;2024-01-25T02:21:46;2.08;;;1.85;;
29788;SDS011;64899;42.660;23.268;2024-01-25T02:24:11;3.25;;;2.00;;
29788;SDS011;64899;42.660;23.268;2024-01-25T02:26:36;5.25;;;2.30;;
29788;SDS011;64899;42.660;23.268;2024-01-25T02:29:02;2.15;;;1.55;;
29788;SDS011;64899;42.660;23.268;2024-01-25T02:31:29;5.97;;;2.40;;
29788;SDS011;64899;42.660;23.268;2024-01-25T02:33:55;3.15;;;1.88;;
29788;SDS011;64899;42.660;23.268;2024-01-25T02:36:22;4.05;;;2.17;;
29788;SDS011;64899;42.660;23.268;2024-01-25T02:38:47;5.13;;;2.50;;
29788;SDS011;64899;42.660;23.268;2024-01-25T02:41:13;5.65;;;3.10;;
29788;SDS011;64899;42.660;23.268;2024-01-25T02:43:38;4.95;;;2.72;;
29788;SDS011;64899;42.660;23.268;2024-01-25T02:46:04;4.80;;;2.90;;
29788;SDS011;64899;42.660;23.268;2024-01-25T02:48:30;8.13;;;3.15;;
29788;SDS011;64899;42.660;23.268;2024-01-25T02:50:56;9.95;;;4.05;;
29788;SDS011;64899;42.660;23.268;2024-01-25T02:53:22;5.10;;;2.50;;
29788;SDS011;64899;42.660;23.268;2024-01-25T02:55:47;3.78;;;2.28;;
29788;SDS011;64899;42.660;23.268;2024-01-25T02:58:13;4.90;;;1.67;;
29788;SDS011;64899;42.660;23.268;2024-01-25T03:00:38;3.03;;;1.55;;
29788;SDS011;64899;42.660;23.268;2024-01-25T03:03:04;2.33;;;1.55;;
29788;SDS011;64899;42.660;23.268;2024-01-25T03:05:29;2.72;;;1.40;;
29788;SDS011;64899;42.660;23.268;2024-01-25T03:07:54;2.25;;;1.50;;
29788;SDS011;64899;42.660;23.268;2024-01-25T03:10:20;1.73;;;1.20;;
29788;SDS011;64899;42.660;23.268;2024-01-25T03:12:45;2.13;;;1.20;;
29788;SDS011;64899;42.660;23.268;2024-01-25T03:15:11;2.47;;;1.25;;
29788;SDS011;64899;42.660;23.268;2024-01-25T03:17:37;1.40;;;1.10;;
29788;SDS011;64899;42.660;23.268;2024-01-25T03:20:02;1.38;;;1.10;;
29788;SDS011;64899;42.660;23.268;2024-01-25T03:22:28;2.25;;;1.40;;
29788;SDS011;64899;42.660;23.268;2024-01-25T03:24:53;1.48;;;1.08;;
29788;SDS011;64899;42.660;23.268;2024-01-25T03:27:19;1.40;;;0.90;;
29788;SDS011;64899;42.660;23.268;2024-01-25T03:29:44;1.63;;;0.90;;
29788;SDS011;64899;42.660;23.268;2024-01-25T03:32:10;1.48;;;1.00;;
29788;SDS011;64899;42.660;23.268;2024-01-25T03:34:35;2.33;;;1.33;;
29788;SDS011;64899;42.660;23.268;2024-01-25T03:37:01;3.53;;;1.42;;
29788;SDS011;64899;42.660;23.268;2024-01-25T03:39:26;3.38;;;1.38;;
29788;SDS011;64899;42.660;23.268;2024-01-25T03:41:51;3.40;;;1.40;;
29788;SDS011;64899;42.660;23.268;2024-01-25T03:44:17;7.50;;;1.67;;
29788;SDS011;64899;42.660;23.268;2024-01-25T03:46:42;3.85;;;1.65;;
29788;SDS011;64899;42.660;23.268;2024-01-25T03:49:08;5.25;;;1.70;;
29788;SDS011;64899;42.660;23.268;2024-01-25T03:51:33;3.08;;;1.80;;
29788;SDS011;64899;42.660;23.268;2024-01-25T03:53:58;6.22;;;2.85;;
29788;SDS011;64899;42.660;23.268;2024-01-25T03:56:24;5.40;;;1.52;;
29788;SDS011;64899;42.660;23.268;2024-01-25T03:58:50;2.53;;;1.20;;
29788;SDS011;64899;42.660;23.268;2024-01-25T04:01:16;5.10;;;1.35;;
29788;SDS011;64899;42.660;23.268;2024-01-25T04:03:41;3.08;;;1.67;;
29788;SDS011;64899;42.660;23.268;2024-01-25T04:06:06;4.47;;;1.65;;
29788;SDS011;64899;42.660;23.268;2024-01-25T04:08:32;3.35;;;1.42;;
29788;SDS011;64899;42.660;23.268;2024-01-25T04:10:57;3.20;;;1.20;;
29788;SDS011;64899;42.660;23.268;2024-01-25T04:13:23;3.85;;;1.38;;
29788;SDS011;64899;42.660;23.268;2024-01-25T04:15:48;2.03;;;1.20;;
29788;SDS011;64899;42.660;23.268;2024-01-25T04:18:13;3.28;;;1.08;;
29788;SDS011;64899;42.660;23.268;2024-01-25T04:20:39;3.28;;;1.73;;
29788;SDS011;64899;42.660;23.268;2024-01-25T04:23:06;1.50;;;1.17;;
29788;SDS011;64899;42.660;23.268;2024-01-25T04:25:31;2.72;;;1.70;;
29788;SDS011;64899;42.660;23.268;2024-01-25T04:27:57;2.97;;;1.77;;
29788;SDS011;64899;42.660;23.268;2024-01-25T04:30:22;3.42;;;1.48;;
29788;SDS011;64899;42.660;23.268;2024-01-25T04:32:48;2.88;;;1.40;;
29788;SDS011;64899;42.660;23.268;2024-01-25T04:35:13;3.63;;;2.00;;
29788;SDS011;64899;42.660;23.268;2024-01-25T04:37:39;4.13;;;1.88;;
29788;SDS011;64899;42.660;23.268;2024-01-25T04:40:04;4.38;;;1.90;;
29788;SDS011;64899;42.660;23.268;2024-01-25T04:42:31;2.90;;;1.65;;
29788;SDS011;64899;42.660;23.268;2024-01-25T04:44:56;3.13;;;1.65;;
29788;SDS011;64899;42.660;23.268;2024-01-25T04:47:22;3.67;;;2.20;;
29788;SDS011;64899;42.660;23.268;2024-01-25T04:49:47;5.75;;;2.22;;
29788;SDS011;64899;42.660;23.268;2024-01-25T04:52:12;3.35;;;2.13;;
29788;SDS011;64899;42.660;23.268;2024-01-25T04:54:38;4.50;;;1.70;;
29788;SDS011;64899;42.660;23.268;2024-01-25T04:57:03;3.65;;;1.92;;
29788;SDS011;64899;42.660;23.268;2024-01-25T04:59:31;3.75;;;1.50;;
29788;SDS011;64899;42.660;23.268;2024-01-25T05:02:00;2.83;;;1.40;;
29788;SDS011;64899;42.660;23.268;2024-01-25T05:04:26;1.63;;;1.30;;
29788;SDS011;64899;42.660;23.268;2024-01-25T05:06:53;4.20;;;1.10;;
29788;SDS011;64899;42.660;23.268;2024-01-25T05:09:18;3.53;;;1.20;;
29788;SDS011;64899;42.660;23.268;2024-01-25T05:11:43;1.75;;;1.30;;
29788;SDS011;64899;42.660;23.268;2024-01-25T05:14:09;3.35;;;2.10;;
29788;SDS011;64899;42.660;23.268;2024-01-25T05:16:34;2.65;;;1.60;;
29788;SDS011;64899;42.660;23.268;2024-01-25T05:19:02;2.17;;;1.40;;
29788;SDS011;64899;42.660;23.268;2024-01-25T05:21:27;3.38;;;1.38;;
29788;SDS011;64899;42.660;23.268;2024-01-25T05:23:53;2.42;;;1.38;;
29788;SDS011;64899;42.660;23.268;2024-01-25T05:26:18;3.03;;;1.50;;
29788;SDS011;64899;42.660;23.268;2024-01-25T05:28:44;2.63;;;1.45;;
29788;SDS011;64899;42.660;23.268;2024-01-25T05:31:09;4.50;;;1.88;;
29788;SDS011;64899;42.660;23.268;2024-01-25T05:33:40;3.40;;;1.80;;
29788;SDS011;64899;42.660;23.268;2024-01-25T05:36:06;4.22;;;1.90;;
29788;SDS011;64899;42.660;23.268;2024-01-25T05:38:32;2.75;;;1.70;;
29788;SDS011;64899;42.660;23.268;2024-01-25T05:40:58;3.83;;;1.95;;
29788;SDS011;64899;42.660;23.268;2024-01-25T05:43:23;2.72;;;1.55;;
29788;SDS011;64899;42.660;23.268;2024-01-25T05:45:49;3.60;;;1.60;;
29788;SDS011;64899;42.660;23.268;2024-01-25T05:48:14;3.67;;;1.95;;
29788;SDS011;64899;42.660;23.268;2024-01-25T05:50:40;5.18;;;2.33;;
29788;SDS011;64899;42.660;23.268;2024-01-25T05:53:05;4.07;;;1.92;;
29788;SDS011;64899;42.660;23.268;2024-01-25T05:55:31;5.70;;;2.20;;
29788;SDS011;64899;42.660;23.268;2024-01-25T05:57:56;3.75;;;2.10;;
29788;SDS011;64899;42.660;23.268;2024-01-25T06:00:22;3.10;;;1.90;;
29788;SDS011;64899;42.660;23.268;2024-01-25T06:02:48;4.53;;;1.85;;
29788;SDS011;64899;42.660;23.268;2024-01-25T06:05:13;6.93;;;2.47;;
29788;SDS011;64899;42.660;23.268;2024-01-25T06:07:39;4.50;;;1.90;;
29788;SDS011;64899;42.660;23.268;2024-01-25T06:10:05;5.90;;;2.28;;
29788;SDS011;64899;42.660;23.268;2024-01-25T06:12:31;9.48;;;3.30;;
29788;SDS011;64899;42.660;23.268;2024-01-25T06:14:56;6.35;;;2.83;;
29788;SDS011;64899;42.660;23.268;2024-01-25T06:17:21;4.75;;;2.90;;
29788;SDS011;64899;42.660;23.268;2024-01-25T06:19:47;6.65;;;2.28;;
29788;SDS011;64899;42.660;23.268;2024-01-25T06:22:12;6.10;;;2.25;;
29788;SDS011;64899;42.660;23.268;2024-01-25T06:24:38;3.50;;;2.30;;
29788;SDS011;64899;42.660;23.268;2024-01-25T06:27:04;5.38;;;2.38;;
29788;SDS011;64899;42.660;23.268;2024-01-25T06:29:29;4.25;;;2.03;;
29788;SDS011;64899;42.660;23.268;2024-01-25T06:31:54;5.70;;;2.28;;
29788;SDS011;64899;42.660;23.268;2024-01-25T06:34:20;4.88;;;2.13;;
29788;SDS011;64899;42.660;23.268;2024-01-25T06:36:45;7.63;;;2.30;;
29788;SDS011;64899;42.660;23.268;2024-01-25T06:39:10;4.55;;;2.20;;
29788;SDS011;64899;42.660;23.268;2024-01-25T06:41:36;8.80;;;2.70;;
29788;SDS011;64899;42.660;23.268;2024-01-25T06:44:01;4.32;;;2.28;;
29788;SDS011;64899;42.660;23.268;2024-01-25T06:46:27;8.60;;;2.97;;
29788;SDS011;64899;42.660;23.268;2024-01-25T06:48:53;4.55;;;2.65;;
29788;SDS011;64899;42.660;23.268;2024-01-25T06:51:19;5.82;;;2.50;;
29788;SDS011;64899;42.660;23.268;2024-01-25T06:53:44;6.32;;;3.00;;
29788;SDS011;64899;42.660;23.268;2024-01-25T06:56:10;8.52;;;3.08;;
29788;SDS011;64899;42.660;23.268;2024-01-25T06:58:35;6.90;;;3.05;;
29788;SDS011;64899;42.660;23.268;2024-01-25T07:01:01;8.82;;;3.20;;
29788;SDS011;64899;42.660;23.268;2024-01-25T07:03:27;6.32;;;2.65;;
29788;SDS011;64899;42.660;23.268;2024-01-25T07:05:52;9.00;;;2.72;;
29788;SDS011;64899;42.660;23.268;2024-01-25T07:08:18;5.55;;;2.63;;
29788;SDS011;64899;42.660;23.268;2024-01-25T07:10:44;10.40;;;3.33;;
29788;SDS011;64899;42.660;23.268;2024-01-25T07:13:09;7.82;;;2.97;;
29788;SDS011;64899;42.660;23.268;2024-01-25T07:15:35;9.45;;;3.05;;
29788;SDS011;64899;42.660;23.268;2024-01-25T07:18:00;7.60;;;2.95;;
29788;SDS011;64899;42.660;23.268;2024-01-25T07:20:26;45.85;;;15.60;;
29788;SDS011;64899;42.660;23.268;2024-01-25T07:22:51;34.47;;;9.38;;
29788;SDS011;64899;42.660;23.268;2024-01-25T07:25:17;7.85;;;3.08;;
29788;SDS011;64899;42.660;23.268;2024-01-25T07:27:45;8.35;;;3.28;;
29788;SDS011;64899;42.660;23.268;2024-01-25T07:30:12;6.47;;;2.80;;
29788;SDS011;64899;42.660;23.268;2024-01-25T07:32:38;8.05;;;2.95;;
29788;SDS011;64899;42.660;23.268;2024-01-25T07:35:06;6.57;;;2.90;;
29788;SDS011;64899;42.660;23.268;2024-01-25T07:37:32;7.82;;;2.75;;
29788;SDS011;64899;42.660;23.268;2024-01-25T07:39:57;7.68;;;3.25;;
29788;SDS011;64899;42.660;23.268;2024-01-25T07:42:23;9.35;;;2.53;;
29788;SDS011;64899;42.660;23.268;2024-01-25T07:44:48;10.05;;;3.78;;
29788;SDS011;64899;42.660;23.268;2024-01-25T07:47:13;5.50;;;2.97;;
29788;SDS011;64899;42.660;23.268;2024-01-25T07:49:40;8.77;;;4.70;;
29788;SDS011;64899;42.660;23.268;2024-01-25T07:52:06;9.60;;;2.80;;
29788;SDS011;64899;42.660;23.268;2024-01-25T07:54:31;7.63;;;2.80;;
29788;SDS011;64899;42.660;23.268;2024-01-25T07:56:56;7.80;;;2.90;;
29788;SDS011;64899;42.660;23.268;2024-01-25T07:59:22;8.35;;;3.05;;
29788;SDS011;64899;42.660;23.268;2024-01-25T08:01:47;9.77;;;3.00;;
29788;SDS011;64899;42.660;23.268;2024-01-25T08:04:13;7.57;;;2.95;;
29788;SDS011;64899;42.660;23.268;2024-01-25T08:06:38;8.45;;;3.08;;
29788;SDS011;64899;42.660;23.268;2024-01-25T08:09:04;10.98;;;3.25;;
29788;SDS011;64899;42.660;23.268;2024-01-25T08:11:29;6.68;;;3.17;;
29788;SDS011;64899;42.660;23.268;2024-01-25T08:13:55;7.20;;;3.35;;
29788;SDS011;64899;42.660;23.268;2024-01-25T08:16:20;6.78;;;3.10;;
29788;SDS011;64899;42.660;23.268;2024-01-25T08:18:46;12.48;;;3.35;;
29788;SDS011;64899;42.660;23.268;2024-01-25T08:21:12;9.30;;;3.53;;
29788;SDS011;64899;42.660;23.268;2024-01-25T08:23:38;8.43;;;2.88;;
29788;SDS011;64899;42.660;23.268;2024-01-25T08:26:04;6.22;;;2.90;;
29788;SDS011;64899;42.660;23.268;2024-01-25T08:28:30;7.57;;;2.80;;
29788;SDS011;64899;42.660;23.268;2024-01-25T08:30:55;7.43;;;3.20;;
29788;SDS011;64899;42.660;23.268;2024-01-25T08:33:20;9.13;;;4.25;;
29788;SDS011;64899;42.660;23.268;2024-01-25T08:35:46;9.27;;;3.00;;
29788;SDS011;64899;42.660;23.268;2024-01-25T08:38:11;10.18;;;2.78;;
29788;SDS011;64899;42.660;23.268;2024-01-25T08:40:37;9.55;;;3.38;;
29788;SDS011;64899;42.660;23.268;2024-01-25T08:43:03;12.98;;;3.70;;
29788;SDS011;64899;42.660;23.268;2024-01-25T08:45:29;8.80;;;2.83;;
29788;SDS011;64899;42.660;23.268;2024-01-25T08:47:55;6.88;;;2.72;;
29788;SDS011;64899;42.660;23.268;2024-01-25T08:50:21;7.18;;;2.70;;
29788;SDS011;64899;42.660;23.268;2024-01-25T08:52:46;8.00;;;3.22;;
29788;SDS011;64899;42.660;23.268;2024-01-25T08:55:12;10.45;;;2.50;;
29788;SDS011;64899;42.660;23.268;2024-01-25T08:57:39;7.15;;;2.53;;
29788;SDS011;64899;42.660;23.268;2024-01-25T09:00:06;6.97;;;2.83;;
29788;SDS011;64899;42.660;23.268;2024-01-25T09:02:38;8.43;;;2.55;;
29788;SDS011;64899;42.660;23.268;2024-01-25T09:05:07;8.25;;;2.97;;
29788;SDS011;64899;42.660;23.268;2024-01-25T09:07:33;9.48;;;3.40;;
29788;SDS011;64899;42.660;23.268;2024-01-25T09:09:59;12.52;;;3.20;;
29788;SDS011;64899;42.660;23.268;2024-01-25T09:12:24;11.30;;;3.05;;
29788;SDS011;64899;42.660;23.268;2024-01-25T09:14:50;7.95;;;3.42;;
29788;SDS011;64899;42.660;23.268;2024-01-25T09:17:15;8.40;;;2.75;;
29788;SDS011;64899;42.660;23.268;2024-01-25T09:19:46;10.05;;;3.33;;
29788;SDS011;64899;42.660;23.268;2024-01-25T09:22:15;11.82;;;3.75;;
29788;SDS011;64899;42.660;23.268;2024-01-25T09:24:43;6.85;;;3.03;;
29788;SDS011;64899;42.660;23.268;2024-01-25T09:27:08;9.80;;;3.42;;
29788;SDS011;64899;42.660;23.268;2024-01-25T09:29:34;10.68;;;3.67;;
29788;SDS011;64899;42.660;23.268;2024-01-25T09:32:00;11.75;;;3.30;;
29788;SDS011;64899;42.660;23.268;2024-01-25T09:34:25;8.82;;;3.92;;
29788;SDS011;64899;42.660;23.268;2024-01-25T09:36:51;14.30;;;3.97;;
29788;SDS011;64899;42.660;23.268;2024-01-25T09:39:16;10.07;;;3.92;;
29788;SDS011;64899;42.660;23.268;2024-01-25T09:41:42;8.85;;;3.50;;
29788;SDS011;64899;42.660;23.268;2024-01-25T09:44:08;10.90;;;4.25;;
29788;SDS011;64899;42.660;23.268;2024-01-25T09:46:33;9.27;;;3.58;;
29788;SDS011;64899;42.660;23.268;2024-01-25T09:48:59;8.52;;;3.47;;
29788;SDS011;64899;42.660;23.268;2024-01-25T09:51:24;10.00;;;3.47;;
29788;SDS011;64899;42.660;23.268;2024-01-25T09:53:51;9.55;;;3.15;;
29788;SDS011;64899;42.660;23.268;2024-01-25T09:56:19;10.93;;;2.95;;
29788;SDS011;64899;42.660;23.268;2024-01-25T09:58:45;9.75;;;3.58;;
29788;SDS011;64899;42.660;23.268;2024-01-25T10:01:11;8.55;;;3.13;;
29788;SDS011;64899;42.660;23.268;2024-01-25T10:03:38;8.30;;;3.35;;
29788;SDS011;64899;42.660;23.268;2024-01-25T10:06:07;13.38;;;4.00;;
29788;SDS011;64899;42.660;23.268;2024-01-25T10:08:33;7.22;;;3.30;;
29788;SDS011;64899;42.660;23.268;2024-01-25T10:10:59;10.32;;;3.42;;
29788;SDS011;64899;42.660;23.268;2024-01-25T10:13:25;10.73;;;3.45;;
29788;SDS011;64899;42.660;23.268;2024-01-25T10:15:52;8.93;;;3.67;;
29788;SDS011;64899;42.660;23.268;2024-01-25T10:18:17;10.82;;;2.95;;
29788;SDS011;64899;42.660;23.268;2024-01-25T10:20:43;9.77;;;3.10;;
29788;SDS011;64899;42.660;23.268;2024-01-25T10:23:08;8.95;;;3.38;;
29788;SDS011;64899;42.660;23.268;2024-01-25T10:25:37;10.23;;;4.13;;
29788;SDS011;64899;42.660;23.268;2024-01-25T10:28:03;7.97;;;3.50;;
29788;SDS011;64899;42.660;23.268;2024-01-25T10:30:34;9.70;;;3.72;;
29788;SDS011;64899;42.660;23.268;2024-01-25T10:33:03;10.50;;;4.28;;
29788;SDS011;64899;42.660;23.268;2024-01-25T10:35:29;10.32;;;4.10;;
29788;SDS011;64899;42.660;23.268;2024-01-25T10:37:55;9.18;;;3.67;;
29788;SDS011;64899;42.660;23.268;2024-01-25T10:40:21;8.57;;;3.42;;
29788;SDS011;64899;42.660;23.268;2024-01-25T10:42:47;9.63;;;3.55;;
29788;SDS011;64899;42.660;23.268;2024-01-25T10:45:13;9.75;;;3.83;;
29788;SDS011;64899;42.660;23.268;2024-01-25T10:47:39;10.75;;;3.85;;
29788;SDS011;64899;42.660;23.268;2024-01-25T10:50:10;8.95;;;3.65;;
29788;SDS011;64899;42.660;23.268;2024-01-25T10:52:38;7.57;;;2.88;;
29788;SDS011;64899;42.660;23.268;2024-01-25T10:55:04;8.93;;;3.25;;
29788;SDS011;64899;42.660;23.268;2024-01-25T10:57:36;10.55;;;3.80;;
29788;SDS011;64899;42.660;23.268;2024-01-25T11:00:10;10.75;;;3.35;;
29788;SDS011;64899;42.660;23.268;2024-01-25T11:02:37;9.43;;;2.45;;
29788;SDS011;64899;42.660;23.268;2024-01-25T11:05:11;10.73;;;3.10;;
29788;SDS011;64899;42.660;23.268;2024-01-25T11:08:16;6.80;;;3.03;;
29788;SDS011;64899;42.660;23.268;2024-01-25T11:10:29;12.45;;;3.35;;
29788;SDS011;64899;42.660;23.268;2024-01-25T11:13:00;14.13;;;3.35;;
29788;SDS011;64899;42.660;23.268;2024-01-25T11:15:30;12.45;;;3.05;;
29788;SDS011;64899;42.660;23.268;2024-01-25T11:17:57;10.18;;;3.90;;
29788;SDS011;64899;42.660;23.268;2024-01-25T11:20:23;8.65;;;3.53;;
29788;SDS011;64899;42.660;23.268;2024-01-25T11:23:01;5.80;;;2.78;;
29788;SDS011;64899;42.660;23.268;2024-01-25T11:25:32;7.03;;;3.40;;
29788;SDS011;64899;42.660;23.268;2024-01-25T11:27:58;11.30;;;3.90;;
29788;SDS011;64899;42.660;23.268;2024-01-25T11:30:26;12.07;;;3.80;;
29788;SDS011;64899;42.660;23.268;2024-01-25T11:32:51;9.43;;;3.45;;
29788;SDS011;64899;42.660;23.268;2024-01-25T11:35:17;11.52;;;4.38;;
29788;SDS011;64899;42.660;23.268;2024-01-25T11:37:43;17.05;;;4.95;;
29788;SDS011;64899;42.660;23.268;2024-01-25T11:40:12;9.50;;;3.95;;
29788;SDS011;64899;42.660;23.268;2024-01-25T11:42:38;16.80;;;5.22;;
29788;SDS011;64899;42.660;23.268;2024-01-25T11:45:05;11.43;;;3.97;;
29788;SDS011;64899;42.660;23.268;2024-01-25T11:47:31;5.57;;;3.17;;
29788;SDS011;64899;42.660;23.268;2024-01-25T11:49:56;9.30;;;3.00;;
29788;SDS011;64899;42.660;23.268;2024-01-25T11:52:22;11.70;;;3.38;;
29788;SDS011;64899;42.660;23.268;2024-01-25T11:54:47;8.30;;;2.83;;
29788;SDS011;64899;42.660;23.268;2024-01-25T11:57:13;6.28;;;3.33;;
29788;SDS011;64899;42.660;23.268;2024-01-25T11:59:38;10.18;;;3.17;;
29788;SDS011;64899;42.660;23.268;2024-01-25T12:02:04;6.72;;;3.08;;
29788;SDS011;64899;42.660;23.268;2024-01-25T12:04:29;9.27;;;3.20;;
29788;SDS011;64899;42.660;23.268;2024-01-25T12:06:55;11.85;;;3.20;;
29788;SDS011;64899;42.660;23.268;2024-01-25T12:09:20;8.05;;;3.17;;
29788;SDS011;64899;42.660;23.268;2024-01-25T12:11:48;7.45;;;3.13;;
29788;SDS011;64899;42.660;23.268;2024-01-25T12:14:16;10.93;;;3.25;;
29788;SDS011;64899;42.660;23.268;2024-01-25T12:16:41;9.90;;;3.10;;
29788;SDS011;64899;42.660;23.268;2024-01-25T12:19:07;13.38;;;3.33;;
29788;SDS011;64899;42.660;23.268;2024-01-25T12:21:33;15.25;;;4.20;;
29788;SDS011;64899;42.660;23.268;2024-01-25T12:23:59;17.48;;;4.65;;
29788;SDS011;64899;42.660;23.268;2024-01-25T12:26:25;12.55;;;5.35;;
29788;SDS011;64899;42.660;23.268;2024-01-25T12:28:50;8.32;;;3.47;;
29788;SDS011;64899;42.660;23.268;2024-01-25T12:31:16;13.65;;;4.20;;
29788;SDS011;64899;42.660;23.268;2024-01-25T12:33:41;8.73;;;3.42;;
29788;SDS011;64899;42.660;23.268;2024-01-25T12:36:07;6.55;;;3.10;;
29788;SDS011;64899;42.660;23.268;2024-01-25T12:38:33;9.10;;;3.55;;
29788;SDS011;64899;42.660;23.268;2024-01-25T12:41:00;6.05;;;2.78;;
29788;SDS011;64899;42.660;23.268;2024-01-25T12:43:25;10.10;;;3.15;;
29788;SDS011;64899;42.660;23.268;2024-01-25T12:45:51;7.10;;;3.03;;
29788;SDS011;64899;42.660;23.268;2024-01-25T12:48:18;9.13;;;2.97;;
29788;SDS011;64899;42.660;23.268;2024-01-25T12:50:44;32.13;;;12.55;;
29788;SDS011;64899;42.660;23.268;2024-01-25T12:53:10;7.20;;;3.22;;
29788;SDS011;64899;42.660;23.268;2024-01-25T12:55:35;8.25;;;2.63;;
29788;SDS011;64899;42.660;23.268;2024-01-25T12:58:01;6.60;;;2.90;;
29788;SDS011;64899;42.660;23.268;2024-01-25T13:00:28;12.60;;;2.75;;
29788;SDS011;64899;42.660;23.268;2024-01-25T13:02:53;8.77;;;3.00;;
29788;SDS011;64899;42.660;23.268;2024-01-25T13:05:19;8.48;;;2.65;;
29788;SDS011;64899;42.660;23.268;2024-01-25T13:07:45;9.43;;;2.67;;
29788;SDS011;64899;42.660;23.268;2024-01-25T13:10:11;11.63;;;3.13;;
29788;SDS011;64899;42.660;23.268;2024-01-25T13:12:37;9.88;;;3.25;;
29788;SDS011;64899;42.660;23.268;2024-01-25T13:15:06;6.97;;;2.53;;
29788;SDS011;64899;42.660;23.268;2024-01-25T13:17:33;11.85;;;2.75;;
29788;SDS011;64899;42.660;23.268;2024-01-25T13:19:59;7.30;;;2.55;;
29788;SDS011;64899;42.660;23.268;2024-01-25T13:22:25;6.43;;;2.67;;
29788;SDS011;64899;42.660;23.268;2024-01-25T13:24:51;10.90;;;3.25;;
29788;SDS011;64899;42.660;23.268;2024-01-25T13:27:16;8.80;;;2.47;;
29788;SDS011;64899;42.660;23.268;2024-01-25T13:29:42;9.13;;;2.97;;
29788;SDS011;64899;42.660;23.268;2024-01-25T13:32:08;11.80;;;3.70;;
29788;SDS011;64899;42.660;23.268;2024-01-25T13:34:33;11.52;;;4.05;;
29788;SDS011;64899;42.660;23.268;2024-01-25T13:36:59;11.02;;;3.10;;
29788;SDS011;64899;42.660;23.268;2024-01-25T13:39:25;10.43;;;3.85;;
29788;SDS011;64899;42.660;23.268;2024-01-25T13:41:51;7.78;;;2.95;;
29788;SDS011;64899;42.660;23.268;2024-01-25T13:44:16;12.00;;;3.47;;
29788;SDS011;64899;42.660;23.268;2024-01-25T13:46:42;10.38;;;3.33;;
29788;SDS011;64899;42.660;23.268;2024-01-25T13:49:07;7.97;;;3.60;;
29788;SDS011;64899;42.660;23.268;2024-01-25T13:51:33;8.10;;;3.50;;
29788;SDS011;64899;42.660;23.268;2024-01-25T13:53:59;6.35;;;2.85;;
29788;SDS011;64899;42.660;23.268;2024-01-25T13:56:24;10.25;;;3.72;;
29788;SDS011;64899;42.660;23.268;2024-01-25T13:58:50;9.60;;;3.22;;
29788;SDS011;64899;42.660;23.268;2024-01-25T14:01:16;14.50;;;4.65;;
29788;SDS011;64899;42.660;23.268;2024-01-25T14:03:42;10.90;;;3.22;;
29788;SDS011;64899;42.660;23.268;2024-01-25T14:06:07;10.38;;;3.67;;
29788;SDS011;64899;42.660;23.268;2024-01-25T14:08:34;11.23;;;3.17;;
29788;SDS011;64899;42.660;23.268;2024-01-25T14:11:03;10.20;;;3.28;;
29788;SDS011;64899;42.660;23.268;2024-01-25T14:13:30;8.13;;;3.70;;
29788;SDS011;64899;42.660;23.268;2024-01-25T14:15:56;11.38;;;3.47;;
29788;SDS011;64899;42.660;23.268;2024-01-25T14:18:26;11.05;;;3.55;;
29788;SDS011;64899;42.660;23.268;2024-01-25T14:20:52;11.48;;;3.92;;